sensor_id;sensor_type;location;lat;lon;timestamp;P1;durP1;ratioP1;P2;durP2;ratioP2
23113;SDS011;11726;50.122;8.832;2023-07-22T00:01:33;9.70;;;4.38;;
23113;SDS011;11726;50.122;8.832;2023-07-22T00:04:00;7.07;;;4.82;;
23113;SDS011;11726;50.122;8.832;2023-07-22T00:06:28;6.47;;;4.63;;
23113;SDS011;11726;50.122;8.832;2023-07-22T00:08:55;9.77;;;5.15;;
23113;SDS011;11726;50.122;8.832;2023-07-22T00:11:21;8.90;;;5.32;;
23113;SDS011;11726;50.122;8.832;2023-07-22T00:13:48;13.55;;;5.35;;
23113;SDS011;11726;50.122;8.832;2023-07-22T00:16:15;8.65;;;4.93;;
23113;SDS011;11726;50.122;8.832;2023-07-22T00:18:41;7.82;;;5.05;;
23113;SDS011;11726;50.122;8.832;2023-07-22T00:21:08;7.28;;;5.07;;
23113;SDS011;11726;50.122;8.832;2023-07-22T00:23:35;8.60;;;4.82;;
23113;SDS011;11726;50.122;8.832;2023-07-22T00:26:01;14.13;;;5.07;;
23113;SDS011;11726;50.122;8.832;2023-07-22T00:28:29;6.78;;;5.05;;
23113;SDS011;11726;50.122;8.832;2023-07-22T00:30:55;6.75;;;4.97;;
23113;SDS011;11726;50.122;8.832;2023-07-22T00:33:23;8.65;;;5.00;;
23113;SDS011;11726;50.122;8.832;2023-07-22T00:35:50;7.95;;;4.57;;
23113;SDS011;11726;50.122;8.832;2023-07-22T00:38:18;6.88;;;4.60;;
23113;SDS011;11726;50.122;8.832;2023-07-22T00:40:45;5.95;;;4.70;;
23113;SDS011;11726;50.122;8.832;2023-07-22T00:43:12;7.88;;;5.13;;
23113;SDS011;11726;50.122;8.832;2023-07-22T00:45:38;5.63;;;4.22;;
23113;SDS011;11726;50.122;8.832;2023-07-22T00:48:05;7.22;;;4.47;;
23113;SDS011;11726;50.122;8.832;2023-07-22T00:50:33;6.15;;;4.00;;
23113;SDS011;11726;50.122;8.832;2023-07-22T00:53:01;5.65;;;4.30;;
23113;SDS011;11726;50.122;8.832;2023-07-22T00:55:28;8.43;;;5.20;;
23113;SDS011;11726;50.122;8.832;2023-07-22T00:57:54;5.10;;;4.22;;
23113;SDS011;11726;50.122;8.832;2023-07-22T01:00:22;7.70;;;4.30;;
23113;SDS011;11726;50.122;8.832;2023-07-22T01:02:49;5.63;;;4.05;;
23113;SDS011;11726;50.122;8.832;2023-07-22T01:05:16;5.03;;;4.10;;
23113;SDS011;11726;50.122;8.832;2023-07-22T01:07:43;5.90;;;4.20;;
23113;SDS011;11726;50.122;8.832;2023-07-22T01:10:12;5.65;;;4.25;;
23113;SDS011;11726;50.122;8.832;2023-07-22T01:12:40;4.47;;;3.33;;
23113;SDS011;11726;50.122;8.832;2023-07-22T01:15:07;5.55;;;3.92;;
23113;SDS011;11726;50.122;8.832;2023-07-22T01:17:36;4.53;;;3.25;;
23113;SDS011;11726;50.122;8.832;2023-07-22T01:20:04;5.68;;;4.13;;
23113;SDS011;11726;50.122;8.832;2023-07-22T01:22:32;4.88;;;3.90;;
23113;SDS011;11726;50.122;8.832;2023-07-22T01:24:59;5.53;;;3.95;;
23113;SDS011;11726;50.122;8.832;2023-07-22T01:27:27;8.52;;;4.38;;
23113;SDS011;11726;50.122;8.832;2023-07-22T01:29:54;4.72;;;3.45;;
23113;SDS011;11726;50.122;8.832;2023-07-22T01:32:20;7.18;;;4.03;;
23113;SDS011;11726;50.122;8.832;2023-07-22T01:34:47;9.23;;;3.80;;
23113;SDS011;11726;50.122;8.832;2023-07-22T01:37:14;6.70;;;4.10;;
23113;SDS011;11726;50.122;8.832;2023-07-22T01:39:40;4.72;;;3.58;;
23113;SDS011;11726;50.122;8.832;2023-07-22T01:42:07;7.40;;;3.83;;
23113;SDS011;11726;50.122;8.832;2023-07-22T01:44:34;12.70;;;3.92;;
23113;SDS011;11726;50.122;8.832;2023-07-22T01:47:01;5.35;;;3.80;;
23113;SDS011;11726;50.122;8.832;2023-07-22T01:49:29;5.07;;;3.38;;
23113;SDS011;11726;50.122;8.832;2023-07-22T01:51:56;6.03;;;3.42;;
23113;SDS011;11726;50.122;8.832;2023-07-22T01:54:22;4.85;;;3.92;;
23113;SDS011;11726;50.122;8.832;2023-07-22T01:56:49;11.00;;;3.55;;
23113;SDS011;11726;50.122;8.832;2023-07-22T01:59:16;4.32;;;3.22;;
23113;SDS011;11726;50.122;8.832;2023-07-22T02:01:42;5.93;;;3.95;;
23113;SDS011;11726;50.122;8.832;2023-07-22T02:04:09;4.65;;;3.92;;
23113;SDS011;11726;50.122;8.832;2023-07-22T02:06:37;5.63;;;3.90;;
23113;SDS011;11726;50.122;8.832;2023-07-22T02:09:04;7.45;;;3.70;;
23113;SDS011;11726;50.122;8.832;2023-07-22T02:11:35;10.35;;;4.13;;
23113;SDS011;11726;50.122;8.832;2023-07-22T02:14:02;7.45;;;4.05;;
23113;SDS011;11726;50.122;8.832;2023-07-22T02:16:35;9.18;;;4.35;;
23113;SDS011;11726;50.122;8.832;2023-07-22T02:19:03;4.55;;;3.33;;
23113;SDS011;11726;50.122;8.832;2023-07-22T02:21:30;5.30;;;4.38;;
23113;SDS011;11726;50.122;8.832;2023-07-22T02:23:56;6.93;;;4.47;;
23113;SDS011;11726;50.122;8.832;2023-07-22T02:26:23;8.40;;;4.20;;
23113;SDS011;11726;50.122;8.832;2023-07-22T02:28:50;5.95;;;4.28;;
23113;SDS011;11726;50.122;8.832;2023-07-22T02:31:17;6.10;;;4.15;;
23113;SDS011;11726;50.122;8.832;2023-07-22T02:33:44;3.83;;;3.15;;
23113;SDS011;11726;50.122;8.832;2023-07-22T02:36:10;5.90;;;4.57;;
23113;SDS011;11726;50.122;8.832;2023-07-22T02:38:37;6.35;;;4.20;;
23113;SDS011;11726;50.122;8.832;2023-07-22T02:41:04;6.10;;;4.38;;
23113;SDS011;11726;50.122;8.832;2023-07-22T02:43:34;4.93;;;3.88;;
23113;SDS011;11726;50.122;8.832;2023-07-22T02:46:04;5.00;;;3.97;;
23113;SDS011;11726;50.122;8.832;2023-07-22T02:48:34;6.97;;;5.03;;
23113;SDS011;11726;50.122;8.832;2023-07-22T02:51:02;8.20;;;4.95;;
23113;SDS011;11726;50.122;8.832;2023-07-22T02:53:32;7.13;;;4.35;;
23113;SDS011;11726;50.122;8.832;2023-07-22T02:55:59;10.43;;;4.78;;
23113;SDS011;11726;50.122;8.832;2023-07-22T02:58:26;7.28;;;4.82;;
23113;SDS011;11726;50.122;8.832;2023-07-22T03:00:53;10.95;;;4.47;;
23113;SDS011;11726;50.122;8.832;2023-07-22T03:03:19;9.35;;;4.55;;
23113;SDS011;11726;50.122;8.832;2023-07-22T03:05:46;7.43;;;4.55;;
23113;SDS011;11726;50.122;8.832;2023-07-22T03:08:13;7.10;;;4.65;;
23113;SDS011;11726;50.122;8.832;2023-07-22T03:10:40;12.10;;;4.43;;
23113;SDS011;11726;50.122;8.832;2023-07-22T03:13:07;7.93;;;5.25;;
23113;SDS011;11726;50.122;8.832;2023-07-22T03:15:34;9.30;;;5.10;;
23113;SDS011;11726;50.122;8.832;2023-07-22T03:18:00;5.15;;;4.30;;
23113;SDS011;11726;50.122;8.832;2023-07-22T03:20:27;8.82;;;5.00;;
23113;SDS011;11726;50.122;8.832;2023-07-22T03:22:54;6.13;;;4.45;;
23113;SDS011;11726;50.122;8.832;2023-07-22T03:25:20;11.13;;;4.57;;
23113;SDS011;11726;50.122;8.832;2023-07-22T03:27:47;8.20;;;4.35;;
23113;SDS011;11726;50.122;8.832;2023-07-22T03:30:14;13.00;;;4.72;;
23113;SDS011;11726;50.122;8.832;2023-07-22T03:32:43;6.35;;;4.15;;
23113;SDS011;11726;50.122;8.832;2023-07-22T03:35:19;7.50;;;4.05;;
23113;SDS011;11726;50.122;8.832;2023-07-22T03:37:45;8.77;;;4.32;;
23113;SDS011;11726;50.122;8.832;2023-07-22T03:40:12;6.10;;;3.97;;
23113;SDS011;11726;50.122;8.832;2023-07-22T03:42:47;6.90;;;4.10;;
23113;SDS011;11726;50.122;8.832;2023-07-22T03:45:15;5.45;;;3.90;;
23113;SDS011;11726;50.122;8.832;2023-07-22T03:47:47;5.50;;;3.83;;
23113;SDS011;11726;50.122;8.832;2023-07-22T03:50:17;5.20;;;3.90;;
23113;SDS011;11726;50.122;8.832;2023-07-22T03:52:43;5.82;;;3.83;;
23113;SDS011;11726;50.122;8.832;2023-07-22T03:55:10;4.07;;;3.30;;
23113;SDS011;11726;50.122;8.832;2023-07-22T03:57:37;6.30;;;4.18;;
23113;SDS011;11726;50.122;8.832;2023-07-22T04:00:03;7.00;;;4.20;;
23113;SDS011;11726;50.122;8.832;2023-07-22T04:02:31;6.53;;;4.18;;
23113;SDS011;11726;50.122;8.832;2023-07-22T04:04:58;5.85;;;4.50;;
23113;SDS011;11726;50.122;8.832;2023-07-22T04:07:25;5.53;;;3.55;;
23113;SDS011;11726;50.122;8.832;2023-07-22T04:09:51;4.30;;;3.60;;
23113;SDS011;11726;50.122;8.832;2023-07-22T04:12:18;10.25;;;4.05;;
23113;SDS011;11726;50.122;8.832;2023-07-22T04:14:45;7.20;;;4.60;;
23113;SDS011;11726;50.122;8.832;2023-07-22T04:17:11;8.25;;;5.03;;
23113;SDS011;11726;50.122;8.832;2023-07-22T04:19:38;8.63;;;4.93;;
23113;SDS011;11726;50.122;8.832;2023-07-22T04:22:05;8.82;;;4.60;;
23113;SDS011;11726;50.122;8.832;2023-07-22T04:24:32;6.38;;;4.80;;
23113;SDS011;11726;50.122;8.832;2023-07-22T04:27:00;10.07;;;5.03;;
23113;SDS011;11726;50.122;8.832;2023-07-22T04:29:27;6.45;;;4.80;;
23113;SDS011;11726;50.122;8.832;2023-07-22T04:31:58;6.63;;;5.05;;
23113;SDS011;11726;50.122;8.832;2023-07-22T04:34:28;7.88;;;4.88;;
23113;SDS011;11726;50.122;8.832;2023-07-22T04:36:55;9.35;;;5.15;;
23113;SDS011;11726;50.122;8.832;2023-07-22T04:39:22;7.30;;;4.68;;
23113;SDS011;11726;50.122;8.832;2023-07-22T04:41:49;8.30;;;5.80;;
23113;SDS011;11726;50.122;8.832;2023-07-22T04:44:17;7.32;;;5.45;;
23113;SDS011;11726;50.122;8.832;2023-07-22T04:46:45;5.70;;;4.80;;
23113;SDS011;11726;50.122;8.832;2023-07-22T04:49:12;10.20;;;5.68;;
23113;SDS011;11726;50.122;8.832;2023-07-22T04:51:39;6.88;;;5.25;;
23113;SDS011;11726;50.122;8.832;2023-07-22T04:54:06;7.65;;;5.30;;
23113;SDS011;11726;50.122;8.832;2023-07-22T04:56:32;8.98;;;5.55;;
23113;SDS011;11726;50.122;8.832;2023-07-22T04:58:59;11.18;;;4.00;;
23113;SDS011;11726;50.122;8.832;2023-07-22T05:01:26;6.95;;;5.20;;
23113;SDS011;11726;50.122;8.832;2023-07-22T05:03:53;7.82;;;4.93;;
23113;SDS011;11726;50.122;8.832;2023-07-22T05:06:21;8.95;;;5.15;;
23113;SDS011;11726;50.122;8.832;2023-07-22T05:08:48;9.88;;;4.78;;
23113;SDS011;11726;50.122;8.832;2023-07-22T05:11:15;7.72;;;4.88;;
23113;SDS011;11726;50.122;8.832;2023-07-22T05:13:41;6.15;;;4.57;;
23113;SDS011;11726;50.122;8.832;2023-07-22T05:16:08;8.55;;;5.82;;
23113;SDS011;11726;50.122;8.832;2023-07-22T05:18:35;7.50;;;4.75;;
23113;SDS011;11726;50.122;8.832;2023-07-22T05:21:01;10.48;;;5.03;;
23113;SDS011;11726;50.122;8.832;2023-07-22T05:23:28;6.55;;;4.97;;
23113;SDS011;11726;50.122;8.832;2023-07-22T05:25:55;6.70;;;5.07;;
23113;SDS011;11726;50.122;8.832;2023-07-22T05:28:21;8.43;;;5.53;;
23113;SDS011;11726;50.122;8.832;2023-07-22T05:30:50;10.85;;;5.88;;
23113;SDS011;11726;50.122;8.832;2023-07-22T05:33:17;9.32;;;5.35;;
23113;SDS011;11726;50.122;8.832;2023-07-22T05:35:44;7.30;;;4.75;;
23113;SDS011;11726;50.122;8.832;2023-07-22T05:38:14;6.07;;;4.85;;
23113;SDS011;11726;50.122;8.832;2023-07-22T05:40:40;7.10;;;5.18;;
23113;SDS011;11726;50.122;8.832;2023-07-22T05:43:07;10.57;;;5.80;;
23113;SDS011;11726;50.122;8.832;2023-07-22T05:45:34;10.23;;;6.63;;
23113;SDS011;11726;50.122;8.832;2023-07-22T05:48:01;7.88;;;6.00;;
23113;SDS011;11726;50.122;8.832;2023-07-22T05:50:28;7.32;;;5.50;;
23113;SDS011;11726;50.122;8.832;2023-07-22T05:52:54;8.18;;;6.13;;
23113;SDS011;11726;50.122;8.832;2023-07-22T05:55:21;9.23;;;5.90;;
23113;SDS011;11726;50.122;8.832;2023-07-22T05:57:48;7.93;;;5.22;;
23113;SDS011;11726;50.122;8.832;2023-07-22T06:00:15;9.07;;;6.30;;
23113;SDS011;11726;50.122;8.832;2023-07-22T06:02:42;7.97;;;5.85;;
23113;SDS011;11726;50.122;8.832;2023-07-22T06:05:08;10.30;;;6.07;;
23113;SDS011;11726;50.122;8.832;2023-07-22T06:07:35;9.27;;;5.57;;
23113;SDS011;11726;50.122;8.832;2023-07-22T06:10:03;7.97;;;5.88;;
23113;SDS011;11726;50.122;8.832;2023-07-22T06:12:30;7.25;;;5.53;;
23113;SDS011;11726;50.122;8.832;2023-07-22T06:14:56;10.38;;;6.07;;
23113;SDS011;11726;50.122;8.832;2023-07-22T06:17:23;9.90;;;6.63;;
23113;SDS011;11726;50.122;8.832;2023-07-22T06:19:50;7.03;;;5.28;;
23113;SDS011;11726;50.122;8.832;2023-07-22T06:22:17;8.45;;;6.03;;
23113;SDS011;11726;50.122;8.832;2023-07-22T06:24:43;9.50;;;6.07;;
23113;SDS011;11726;50.122;8.832;2023-07-22T06:27:10;9.73;;;5.55;;
23113;SDS011;11726;50.122;8.832;2023-07-22T06:29:37;8.85;;;5.35;;
23113;SDS011;11726;50.122;8.832;2023-07-22T06:32:04;10.07;;;5.70;;
23113;SDS011;11726;50.122;8.832;2023-07-22T06:34:31;9.10;;;5.53;;
23113;SDS011;11726;50.122;8.832;2023-07-22T06:36:58;10.20;;;5.22;;
23113;SDS011;11726;50.122;8.832;2023-07-22T06:39:24;6.80;;;5.22;;
23113;SDS011;11726;50.122;8.832;2023-07-22T06:41:51;8.95;;;5.63;;
23113;SDS011;11726;50.122;8.832;2023-07-22T06:44:18;9.20;;;5.30;;
23113;SDS011;11726;50.122;8.832;2023-07-22T06:46:44;9.05;;;5.43;;
23113;SDS011;11726;50.122;8.832;2023-07-22T06:49:11;6.97;;;5.32;;
23113;SDS011;11726;50.122;8.832;2023-07-22T06:51:38;9.23;;;5.55;;
23113;SDS011;11726;50.122;8.832;2023-07-22T06:54:05;6.13;;;4.57;;
23113;SDS011;11726;50.122;8.832;2023-07-22T06:56:32;8.32;;;5.78;;
23113;SDS011;11726;50.122;8.832;2023-07-22T06:58:59;9.23;;;5.30;;
23113;SDS011;11726;50.122;8.832;2023-07-22T07:01:25;6.78;;;5.25;;
23113;SDS011;11726;50.122;8.832;2023-07-22T07:03:52;7.50;;;5.50;;
23113;SDS011;11726;50.122;8.832;2023-07-22T07:06:19;8.75;;;5.10;;
23113;SDS011;11726;50.122;8.832;2023-07-22T07:08:46;5.72;;;4.32;;
23113;SDS011;11726;50.122;8.832;2023-07-22T07:11:13;6.68;;;4.85;;
23113;SDS011;11726;50.122;8.832;2023-07-22T07:13:40;5.93;;;4.97;;
23113;SDS011;11726;50.122;8.832;2023-07-22T07:16:19;7.75;;;5.50;;
23113;SDS011;11726;50.122;8.832;2023-07-22T07:18:54;6.68;;;4.85;;
23113;SDS011;11726;50.122;8.832;2023-07-22T07:21:21;7.40;;;5.00;;
23113;SDS011;11726;50.122;8.832;2023-07-22T07:23:48;6.22;;;4.85;;
23113;SDS011;11726;50.122;8.832;2023-07-22T07:26:16;6.22;;;5.03;;
23113;SDS011;11726;50.122;8.832;2023-07-22T07:28:43;7.13;;;5.55;;
23113;SDS011;11726;50.122;8.832;2023-07-22T07:31:10;8.20;;;5.30;;
23113;SDS011;11726;50.122;8.832;2023-07-22T07:33:37;9.18;;;5.50;;
23113;SDS011;11726;50.122;8.832;2023-07-22T07:36:03;8.82;;;5.78;;
23113;SDS011;11726;50.122;8.832;2023-07-22T07:38:30;8.68;;;5.63;;
23113;SDS011;11726;50.122;8.832;2023-07-22T07:40:58;7.00;;;5.20;;
23113;SDS011;11726;50.122;8.832;2023-07-22T07:43:26;5.90;;;4.93;;
23113;SDS011;11726;50.122;8.832;2023-07-22T07:46:11;7.03;;;5.03;;
23113;SDS011;11726;50.122;8.832;2023-07-22T07:48:38;7.88;;;5.03;;
23113;SDS011;11726;50.122;8.832;2023-07-22T07:51:05;7.32;;;5.40;;
23113;SDS011;11726;50.122;8.832;2023-07-22T07:53:32;8.00;;;5.05;;
23113;SDS011;11726;50.122;8.832;2023-07-22T07:55:59;5.25;;;4.47;;
23113;SDS011;11726;50.122;8.832;2023-07-22T07:58:26;5.22;;;4.65;;
23113;SDS011;11726;50.122;8.832;2023-07-22T08:00:52;5.82;;;4.65;;
23113;SDS011;11726;50.122;8.832;2023-07-22T08:03:19;8.57;;;4.70;;
23113;SDS011;11726;50.122;8.832;2023-07-22T08:05:46;6.75;;;4.32;;
23113;SDS011;11726;50.122;8.832;2023-07-22T08:08:13;5.93;;;4.00;;
23113;SDS011;11726;50.122;8.832;2023-07-22T08:10:40;8.15;;;4.55;;
23113;SDS011;11726;50.122;8.832;2023-07-22T08:13:08;7.28;;;4.22;;
23113;SDS011;11726;50.122;8.832;2023-07-22T08:15:35;10.13;;;4.65;;
23113;SDS011;11726;50.122;8.832;2023-07-22T08:18:01;7.47;;;4.25;;
23113;SDS011;11726;50.122;8.832;2023-07-22T08:20:28;7.45;;;4.30;;
23113;SDS011;11726;50.122;8.832;2023-07-22T08:22:54;6.05;;;4.28;;
23113;SDS011;11726;50.122;8.832;2023-07-22T08:25:22;6.25;;;3.67;;
23113;SDS011;11726;50.122;8.832;2023-07-22T08:27:48;5.10;;;3.72;;
23113;SDS011;11726;50.122;8.832;2023-07-22T08:30:15;6.70;;;3.72;;
23113;SDS011;11726;50.122;8.832;2023-07-22T08:32:42;6.18;;;4.78;;
23113;SDS011;11726;50.122;8.832;2023-07-22T08:35:08;6.00;;;3.50;;
23113;SDS011;11726;50.122;8.832;2023-07-22T08:37:35;4.80;;;3.67;;
23113;SDS011;11726;50.122;8.832;2023-07-22T08:40:02;5.18;;;3.90;;
23113;SDS011;11726;50.122;8.832;2023-07-22T08:42:29;8.60;;;3.80;;
23113;SDS011;11726;50.122;8.832;2023-07-22T08:44:57;7.85;;;3.92;;
23113;SDS011;11726;50.122;8.832;2023-07-22T08:47:28;5.35;;;3.83;;
23113;SDS011;11726;50.122;8.832;2023-07-22T08:49:56;8.23;;;4.05;;
23113;SDS011;11726;50.122;8.832;2023-07-22T08:52:25;4.55;;;3.40;;
23113;SDS011;11726;50.122;8.832;2023-07-22T08:54:52;4.57;;;3.38;;
23113;SDS011;11726;50.122;8.832;2023-07-22T08:57:20;4.10;;;3.35;;
23113;SDS011;11726;50.122;8.832;2023-07-22T08:59:47;5.07;;;3.28;;
23113;SDS011;11726;50.122;8.832;2023-07-22T09:02:15;4.15;;;3.45;;
23113;SDS011;11726;50.122;8.832;2023-07-22T09:04:42;3.75;;;3.03;;
23113;SDS011;11726;50.122;8.832;2023-07-22T09:07:10;5.82;;;3.60;;
23113;SDS011;11726;50.122;8.832;2023-07-22T09:09:38;6.25;;;3.55;;
23113;SDS011;11726;50.122;8.832;2023-07-22T09:12:05;4.55;;;2.63;;
23113;SDS011;11726;50.122;8.832;2023-07-22T09:14:33;3.92;;;2.90;;
23113;SDS011;11726;50.122;8.832;2023-07-22T09:17:03;7.75;;;2.90;;
23113;SDS011;11726;50.122;8.832;2023-07-22T09:19:31;4.32;;;2.90;;
23113;SDS011;11726;50.122;8.832;2023-07-22T09:21:58;3.45;;;2.97;;
23113;SDS011;11726;50.122;8.832;2023-07-22T09:24:25;3.53;;;2.88;;
23113;SDS011;11726;50.122;8.832;2023-07-22T09:26:54;5.50;;;2.80;;
23113;SDS011;11726;50.122;8.832;2023-07-22T09:29:37;4.10;;;3.22;;
23113;SDS011;11726;50.122;8.832;2023-07-22T09:32:06;5.07;;;3.50;;
23113;SDS011;11726;50.122;8.832;2023-07-22T09:34:33;3.78;;;3.22;;
23113;SDS011;11726;50.122;8.832;2023-07-22T09:37:00;3.95;;;3.10;;
23113;SDS011;11726;50.122;8.832;2023-07-22T09:39:27;5.10;;;2.83;;
23113;SDS011;11726;50.122;8.832;2023-07-22T09:41:53;3.67;;;2.65;;
23113;SDS011;11726;50.122;8.832;2023-07-22T09:44:20;3.58;;;2.80;;
23113;SDS011;11726;50.122;8.832;2023-07-22T09:46:48;5.93;;;2.63;;
23113;SDS011;11726;50.122;8.832;2023-07-22T09:49:17;4.50;;;3.00;;
23113;SDS011;11726;50.122;8.832;2023-07-22T09:51:44;3.53;;;2.67;;
23113;SDS011;11726;50.122;8.832;2023-07-22T09:54:27;4.75;;;3.08;;
23113;SDS011;11726;50.122;8.832;2023-07-22T09:56:56;3.00;;;2.67;;
23113;SDS011;11726;50.122;8.832;2023-07-22T09:59:23;3.92;;;2.70;;
23113;SDS011;11726;50.122;8.832;2023-07-22T10:01:51;4.95;;;3.05;;
23113;SDS011;11726;50.122;8.832;2023-07-22T10:04:18;3.42;;;2.80;;
23113;SDS011;11726;50.122;8.832;2023-07-22T10:06:47;3.30;;;3.00;;
23113;SDS011;11726;50.122;8.832;2023-07-22T10:09:15;8.35;;;3.55;;
23113;SDS011;11726;50.122;8.832;2023-07-22T10:11:43;4.43;;;2.85;;
23113;SDS011;11726;50.122;8.832;2023-07-22T10:14:10;4.80;;;2.88;;
23113;SDS011;11726;50.122;8.832;2023-07-22T10:16:38;4.32;;;3.10;;
23113;SDS011;11726;50.122;8.832;2023-07-22T10:19:05;3.25;;;2.70;;
23113;SDS011;11726;50.122;8.832;2023-07-22T10:21:33;5.55;;;3.33;;
23113;SDS011;11726;50.122;8.832;2023-07-22T10:24:01;3.95;;;3.30;;
23113;SDS011;11726;50.122;8.832;2023-07-22T10:26:29;5.60;;;3.20;;
23113;SDS011;11726;50.122;8.832;2023-07-22T10:29:06;4.53;;;3.17;;
23113;SDS011;11726;50.122;8.832;2023-07-22T10:31:34;4.47;;;2.90;;
23113;SDS011;11726;50.122;8.832;2023-07-22T10:34:01;5.57;;;3.00;;
23113;SDS011;11726;50.122;8.832;2023-07-22T10:36:29;3.47;;;2.88;;
23113;SDS011;11726;50.122;8.832;2023-07-22T10:39:00;6.90;;;2.70;;
23113;SDS011;11726;50.122;8.832;2023-07-22T10:41:30;4.65;;;2.75;;
23113;SDS011;11726;50.122;8.832;2023-07-22T10:43:59;5.30;;;2.72;;
23113;SDS011;11726;50.122;8.832;2023-07-22T10:46:34;5.57;;;3.00;;
23113;SDS011;11726;50.122;8.832;2023-07-22T10:49:09;3.08;;;2.47;;
23113;SDS011;11726;50.122;8.832;2023-07-22T10:51:40;7.20;;;2.97;;
23113;SDS011;11726;50.122;8.832;2023-07-22T10:54:10;6.45;;;3.00;;
23113;SDS011;11726;50.122;8.832;2023-07-22T10:56:40;3.78;;;2.45;;
23113;SDS011;11726;50.122;8.832;2023-07-22T10:59:12;3.42;;;2.60;;
23113;SDS011;11726;50.122;8.832;2023-07-22T11:01:39;7.03;;;2.70;;
23113;SDS011;11726;50.122;8.832;2023-07-22T11:06:53;4.53;;;2.45;;
23113;SDS011;11726;50.122;8.832;2023-07-22T11:09:42;5.43;;;2.60;;
23113;SDS011;11726;50.122;8.832;2023-07-22T11:12:14;6.88;;;2.85;;
23113;SDS011;11726;50.122;8.832;2023-07-22T11:14:47;4.90;;;3.35;;
23113;SDS011;11726;50.122;8.832;2023-07-22T11:17:27;4.22;;;2.95;;
23113;SDS011;11726;50.122;8.832;2023-07-22T11:19:56;4.15;;;2.75;;
23113;SDS011;11726;50.122;8.832;2023-07-22T11:22:26;4.50;;;2.83;;
23113;SDS011;11726;50.122;8.832;2023-07-22T11:24:55;4.93;;;2.80;;
23113;SDS011;11726;50.122;8.832;2023-07-22T11:27:27;3.30;;;2.60;;
23113;SDS011;11726;50.122;8.832;2023-07-22T11:29:57;3.80;;;2.55;;
23113;SDS011;11726;50.122;8.832;2023-07-22T11:32:29;3.95;;;2.75;;
23113;SDS011;11726;50.122;8.832;2023-07-22T11:34:55;3.53;;;2.70;;
23113;SDS011;11726;50.122;8.832;2023-07-22T11:37:22;5.50;;;2.70;;
23113;SDS011;11726;50.122;8.832;2023-07-22T11:39:49;8.30;;;2.63;;
23113;SDS011;11726;50.122;8.832;2023-07-22T11:42:15;6.97;;;2.90;;
23113;SDS011;11726;50.122;8.832;2023-07-22T11:44:43;3.30;;;2.80;;
23113;SDS011;11726;50.122;8.832;2023-07-22T11:47:10;4.25;;;2.75;;
23113;SDS011;11726;50.122;8.832;2023-07-22T11:49:38;4.97;;;2.78;;
23113;SDS011;11726;50.122;8.832;2023-07-22T11:52:11;5.45;;;2.85;;
23113;SDS011;11726;50.122;8.832;2023-07-22T11:54:42;3.78;;;2.72;;
23113;SDS011;11726;50.122;8.832;2023-07-22T11:57:12;5.32;;;2.78;;
23113;SDS011;11726;50.122;8.832;2023-07-22T11:59:49;3.35;;;2.60;;
23113;SDS011;11726;50.122;8.832;2023-07-22T12:02:18;10.57;;;2.90;;
23113;SDS011;11726;50.122;8.832;2023-07-22T12:04:51;4.45;;;2.97;;
23113;SDS011;11726;50.122;8.832;2023-07-22T12:07:29;4.22;;;2.67;;
23113;SDS011;11726;50.122;8.832;2023-07-22T12:10:04;3.33;;;2.75;;
23113;SDS011;11726;50.122;8.832;2023-07-22T12:12:32;5.63;;;2.78;;
23113;SDS011;11726;50.122;8.832;2023-07-22T12:15:12;5.53;;;3.10;;
23113;SDS011;11726;50.122;8.832;2023-07-22T12:17:48;2.80;;;2.47;;
23113;SDS011;11726;50.122;8.832;2023-07-22T12:20:23;4.15;;;2.95;;
23113;SDS011;11726;50.122;8.832;2023-07-22T12:22:52;5.25;;;2.80;;
23113;SDS011;11726;50.122;8.832;2023-07-22T12:25:19;6.63;;;2.72;;
23113;SDS011;11726;50.122;8.832;2023-07-22T12:27:46;8.38;;;3.40;;
23113;SDS011;11726;50.122;8.832;2023-07-22T12:30:13;3.15;;;2.47;;
23113;SDS011;11726;50.122;8.832;2023-07-22T12:32:42;4.25;;;2.97;;
23113;SDS011;11726;50.122;8.832;2023-07-22T12:35:09;2.78;;;2.50;;
23113;SDS011;11726;50.122;8.832;2023-07-22T12:37:36;4.35;;;3.10;;
23113;SDS011;11726;50.122;8.832;2023-07-22T12:40:03;7.05;;;3.42;;
23113;SDS011;11726;50.122;8.832;2023-07-22T12:42:33;6.80;;;2.75;;
23113;SDS011;11726;50.122;8.832;2023-07-22T12:45:04;3.90;;;2.78;;
23113;SDS011;11726;50.122;8.832;2023-07-22T12:47:31;3.38;;;3.08;;
23113;SDS011;11726;50.122;8.832;2023-07-22T12:49:58;6.05;;;2.60;;
23113;SDS011;11726;50.122;8.832;2023-07-22T12:52:25;2.85;;;2.65;;
23113;SDS011;11726;50.122;8.832;2023-07-22T12:54:51;7.03;;;3.30;;
23113;SDS011;11726;50.122;8.832;2023-07-22T12:57:18;6.47;;;3.00;;
23113;SDS011;11726;50.122;8.832;2023-07-22T12:59:45;5.70;;;2.80;;
23113;SDS011;11726;50.122;8.832;2023-07-22T13:02:15;5.10;;;3.03;;
23113;SDS011;11726;50.122;8.832;2023-07-22T13:04:42;4.38;;;2.95;;
23113;SDS011;11726;50.122;8.832;2023-07-22T13:07:10;4.55;;;2.75;;
23113;SDS011;11726;50.122;8.832;2023-07-22T13:09:37;3.13;;;2.70;;
23113;SDS011;11726;50.122;8.832;2023-07-22T13:12:04;13.65;;;2.58;;
23113;SDS011;11726;50.122;8.832;2023-07-22T13:14:31;4.55;;;2.70;;
23113;SDS011;11726;50.122;8.832;2023-07-22T13:16:58;4.22;;;2.80;;
23113;SDS011;11726;50.122;8.832;2023-07-22T13:19:25;8.57;;;3.13;;
23113;SDS011;11726;50.122;8.832;2023-07-22T13:21:51;5.45;;;3.05;;
23113;SDS011;11726;50.122;8.832;2023-07-22T13:24:18;8.07;;;2.88;;
23113;SDS011;11726;50.122;8.832;2023-07-22T13:26:45;7.03;;;3.08;;
23113;SDS011;11726;50.122;8.832;2023-07-22T13:29:11;3.10;;;2.58;;
23113;SDS011;11726;50.122;8.832;2023-07-22T13:31:38;5.85;;;3.38;;
23113;SDS011;11726;50.122;8.832;2023-07-22T13:34:05;6.03;;;2.65;;
23113;SDS011;11726;50.122;8.832;2023-07-22T13:36:32;3.47;;;2.60;;
23113;SDS011;11726;50.122;8.832;2023-07-22T13:38:58;3.90;;;2.65;;
23113;SDS011;11726;50.122;8.832;2023-07-22T13:41:25;3.45;;;2.90;;
23113;SDS011;11726;50.122;8.832;2023-07-22T13:43:52;6.60;;;3.08;;
23113;SDS011;11726;50.122;8.832;2023-07-22T13:46:19;5.63;;;2.28;;
23113;SDS011;11726;50.122;8.832;2023-07-22T13:48:46;4.40;;;3.13;;
23113;SDS011;11726;50.122;8.832;2023-07-22T13:51:12;4.15;;;2.72;;
23113;SDS011;11726;50.122;8.832;2023-07-22T13:53:39;5.82;;;2.88;;
23113;SDS011;11726;50.122;8.832;2023-07-22T13:56:06;3.58;;;2.80;;
23113;SDS011;11726;50.122;8.832;2023-07-22T13:58:33;5.88;;;2.63;;
23113;SDS011;11726;50.122;8.832;2023-07-22T14:00:59;6.28;;;2.90;;
23113;SDS011;11726;50.122;8.832;2023-07-22T14:03:27;3.08;;;2.78;;
23113;SDS011;11726;50.122;8.832;2023-07-22T14:05:54;6.28;;;3.08;;
23113;SDS011;11726;50.122;8.832;2023-07-22T14:08:21;3.03;;;2.47;;
23113;SDS011;11726;50.122;8.832;2023-07-22T14:10:48;2.75;;;2.47;;
23113;SDS011;11726;50.122;8.832;2023-07-22T14:13:14;10.20;;;3.35;;
23113;SDS011;11726;50.122;8.832;2023-07-22T14:15:41;6.30;;;2.47;;
23113;SDS011;11726;50.122;8.832;2023-07-22T14:18:08;5.20;;;2.85;;
23113;SDS011;11726;50.122;8.832;2023-07-22T14:20:35;3.55;;;2.83;;
23113;SDS011;11726;50.122;8.832;2023-07-22T14:23:02;6.53;;;3.13;;
23113;SDS011;11726;50.122;8.832;2023-07-22T14:25:30;5.72;;;2.35;;
23113;SDS011;11726;50.122;8.832;2023-07-22T14:27:57;4.13;;;3.05;;
23113;SDS011;11726;50.122;8.832;2023-07-22T14:30:23;5.18;;;2.90;;
23113;SDS011;11726;50.122;8.832;2023-07-22T14:32:50;4.35;;;2.72;;
23113;SDS011;11726;50.122;8.832;2023-07-22T14:35:17;3.50;;;2.42;;
23113;SDS011;11726;50.122;8.832;2023-07-22T14:37:44;4.70;;;3.15;;
23113;SDS011;11726;50.122;8.832;2023-07-22T14:40:12;6.35;;;3.63;;
23113;SDS011;11726;50.122;8.832;2023-07-22T14:42:39;6.03;;;3.67;;
23113;SDS011;11726;50.122;8.832;2023-07-22T14:45:06;4.18;;;2.67;;
23113;SDS011;11726;50.122;8.832;2023-07-22T14:47:33;5.68;;;2.42;;
23113;SDS011;11726;50.122;8.832;2023-07-22T14:50:01;8.27;;;2.72;;
23113;SDS011;11726;50.122;8.832;2023-07-22T14:52:28;4.63;;;3.03;;